Time;durP1;ratioP1;P1;durP2;ratioP2;P2;SDS_P1;SDS_P2;PMS_P1;PMS_P2;Temp;Humidity;BMP_temperature;BMP_pressure;BME280_temperature;BME280_humidity;BME280_pressure;Samples;Min_cycle;Max_cycle;Signal;HPM_P1;HPM_P2
2023/07/15 00:01:35;;;;;;;13.25;4.75;;;;;;;14.44;100.00;99216.88;5038734;28;20052;-64
2023/07/15 00:04:09;;;;;;;16.95;3.80;;;;;;;14.41;100.00;99208.38;5045093;28;20100;-64
2023/07/15 00:06:35;;;;;;;;;;;;;;;14.45;100.00;99196.66;5028576;28;20049;-64
2023/07/15 00:09:02;;;;;;;22.20;4.90;;;;;;;14.19;100.00;99186.34;5027721;28;19924;-64
2023/07/15 00:11:37;;;;;;;16.50;3.83;;;;;;;14.11;100.00;99180.88;5030549;28;20053;-64
2023/07/15 00:14:12;;;;;;;23.98;5.13;;;;;;;14.15;100.00;99173.56;5045348;28;20052;-64
2023/07/15 00:16:39;;;;;;;14.40;4.18;;;;;;;14.24;100.00;99155.25;5033621;28;20053;-64
2023/07/15 00:19:06;;;;;;;16.55;4.32;;;;;;;14.35;100.00;99157.03;5046037;28;20486;-63
2023/07/15 00:21:33;;;;;;;15.20;4.07;;;;;;;14.22;100.00;99154.53;5033550;28;20053;-64
2023/07/15 00:24:00;;;;;;;14.07;3.42;;;;;;;14.74;100.00;99138.25;5051170;28;20056;-64
2023/07/15 00:26:30;;;;;;;13.63;3.63;;;;;;;14.69;100.00;99121.97;5041607;28;20128;-64
2023/07/15 00:28:57;;;;;;;14.43;3.90;;;;;;;14.74;100.00;99125.06;5033849;28;20567;-64
2023/07/15 00:31:26;;;;;;;9.80;3.33;;;;;;;14.78;100.00;99116.81;5038795;28;20045;-64
2023/07/15 00:33:53;;;;;;;11.77;3.72;;;;;;;14.85;100.00;99113.66;5041903;28;20482;-64
2023/07/15 00:36:20;;;;;;;16.48;4.18;;;;;;;14.92;100.00;99097.22;5050274;28;20071;-64
2023/07/15 00:38:47;;;;;;;14.43;4.75;;;;;;;14.83;100.00;99099.78;5043258;28;20064;-64
2023/07/15 00:41:18;;;;;;;21.65;4.75;;;;;;;14.88;100.00;99094.97;5029001;28;20100;-64
2023/07/15 00:44:01;;;;;;;18.38;4.68;;;;;;;14.76;100.00;99089.72;5030760;28;20083;-64
2023/07/15 00:46:46;;;;;;;19.45;4.60;;;;;;;14.78;100.00;99081.69;5012114;28;20072;-64
2023/07/15 00:49:19;;;;;;;17.38;5.45;;;;;;;14.83;100.00;99076.88;5025396;28;20053;-64
2023/07/15 00:52:16;;;;;;;16.45;4.75;;;;;;;14.82;100.00;99056.78;5030447;28;20384;-64
2023/07/15 00:54:48;;;;;;;15.50;4.22;;;;;;;14.87;100.00;99067.75;5027647;28;20069;-64
2023/07/15 00:57:16;;;;;;;18.42;4.57;;;;;;;14.78;100.00;99052.72;5037977;28;20491;-64
2023/07/15 00:59:44;;;;;;;16.48;4.57;;;;;;;14.80;100.00;99042.88;5029300;28;20048;-64
2023/07/15 01:02:13;;;;;;;18.33;4.13;;;;;;;14.81;100.00;99029.59;5013661;28;20120;-64
2023/07/15 01:04:41;;;;;;;21.52;4.55;;;;;;;14.72;100.00;99019.81;5041834;28;20068;-64
2023/07/15 01:07:09;;;;;;;20.33;4.80;;;;;;;14.82;100.00;99006.72;5019123;28;20491;-64
2023/07/15 01:09:36;;;;;;;13.90;4.50;;;;;;;14.81;100.00;99005.88;5028331;28;20049;-64
2023/07/15 01:12:04;;;;;;;18.13;4.53;;;;;;;14.83;100.00;98997.03;5030473;28;20091;-64
2023/07/15 01:14:31;;;;;;;24.42;4.93;;;;;;;14.70;100.00;98987.50;5012923;28;20057;-64
2023/07/15 01:16:59;;;;;;;33.47;6.05;;;;;;;15.00;100.00;98985.91;5029455;28;20045;-65
2023/07/15 01:19:27;;;;;;;26.63;5.93;;;;;;;14.90;100.00;98963.94;5011980;28;20608;-64
2023/07/15 01:21:54;;;;;;;18.75;4.82;;;;;;;14.83;100.00;98955.69;5043041;28;20089;-64
2023/07/15 01:24:22;;;;;;;18.75;4.60;;;;;;;14.78;100.00;98948.19;5039854;28;20053;-64
2023/07/15 01:27:01;;;;;;;19.15;4.88;;;;;;;14.96;100.00;98940.53;5033730;28;20450;-63
2023/07/15 01:29:29;;;;;;;22.70;6.38;;;;;;;14.70;100.00;98936.63;5022176;28;20184;-64
2023/07/15 01:32:02;;;;;;;23.70;4.43;;;;;;;14.84;100.00;98928.41;5044449;28;20053;-64
2023/07/15 01:34:32;;;;;;;17.20;4.05;;;;;;;14.83;100.00;98929.34;5013286;28;20060;-64
2023/07/15 01:37:00;;;;;;;15.48;3.65;;;;;;;14.98;100.00;98917.53;5030299;28;20053;-64
2023/07/15 01:39:26;;;;;;;16.88;4.57;;;;;;;14.81;100.00;98903.13;5026036;28;20403;-63
2023/07/15 01:41:55;;;;;;;20.95;4.55;;;;;;;14.78;100.00;98877.06;5022536;28;20049;-63
2023/07/15 01:44:25;;;;;;;14.73;4.28;;;;;;;14.95;100.00;98887.97;5038381;28;20048;-63
2023/07/15 01:46:52;;;;;;;11.55;3.17;;;;;;;14.79;100.00;98873.44;5029169;28;20132;-63
2023/07/15 01:49:19;;;;;;;19.13;4.40;;;;;;;14.78;100.00;98873.56;5028787;28;20448;-63
2023/07/15 01:51:46;;;;;;;20.83;4.05;;;;;;;14.94;100.00;98863.41;5049527;28;20045;-63
2023/07/15 01:54:12;;;;;;;14.18;3.92;;;;;;;14.84;100.00;98856.41;5041987;28;20060;-63
2023/07/15 01:56:41;;;;;;;12.73;3.28;;;;;;;14.93;100.00;98853.00;5049593;28;20482;-63
2023/07/15 01:59:10;;;;;;;13.48;3.67;;;;;;;14.90;100.00;98846.19;5043148;28;20041;-63
2023/07/15 02:01:40;;;;;;;14.38;3.50;;;;;;;14.98;100.00;98830.56;5024723;28;20152;-63
2023/07/15 02:04:08;;;;;;;15.05;3.95;;;;;;;15.04;100.00;98841.53;5043697;28;20049;-63
2023/07/15 02:06:35;;;;;;;11.57;3.15;;;;;;;14.94;100.00;98830.94;5030036;28;20049;-63
2023/07/15 02:09:07;;;;;;;15.20;2.97;;;;;;;15.02;100.00;98830.31;5041197;28;20127;-64
2023/07/15 02:11:35;;;;;;;14.68;3.35;;;;;;;15.04;100.00;98825.72;5028849;28;20057;-63
2023/07/15 02:14:03;;;;;;;12.77;3.28;;;;;;;15.19;100.00;98814.69;5008099;28;20044;-64
2023/07/15 02:16:30;;;;;;;16.30;3.42;;;;;;;15.14;100.00;98806.34;5033152;28;20380;-63
2023/07/15 02:18:58;;;;;;;15.32;3.20;;;;;;;15.17;100.00;98805.22;5018709;28;20144;-64
2023/07/15 02:21:25;;;;;;;17.80;5.10;;;;;;;14.96;100.00;98785.06;5035266;28;20147;-64
2023/07/15 02:23:54;;;;;;;15.35;3.15;;;;;;;14.91;100.00;98775.84;5050370;28;20660;-64
2023/07/15 02:26:21;;;;;;;24.00;3.78;;;;;;;14.88;100.00;98773.53;5042648;28;20049;-64
2023/07/15 02:28:48;;;;;;;16.13;3.28;;;;;;;14.97;100.00;98776.16;5050027;28;20053;-64
2023/07/15 02:31:14;;;;;;;17.77;3.42;;;;;;;14.89;100.00;98767.25;5030113;28;20525;-64
2023/07/15 02:33:41;;;;;;;21.05;3.50;;;;;;;14.93;100.00;98764.25;5028977;28;20132;-64
2023/07/15 02:36:08;;;;;;;16.55;3.65;;;;;;;14.98;100.00;98758.59;5043073;28;20168;-64
2023/07/15 02:38:35;;;;;;;9.63;2.20;;;;;;;14.96;100.00;98749.94;5030544;28;20415;-64
2023/07/15 02:41:01;;;;;;;12.10;2.50;;;;;;;15.05;100.00;98750.94;5028785;28;20053;-64
2023/07/15 02:43:28;;;;;;;11.35;1.88;;;;;;;15.14;100.00;98743.06;5032012;28;20068;-64
2023/07/15 02:45:56;;;;;;;8.95;1.80;;;;;;;15.25;100.00;98733.38;5042648;28;20063;-64
2023/07/15 02:48:24;;;;;;;9.23;2.40;;;;;;;15.23;100.00;98722.13;5034316;28;20052;-64
2023/07/15 02:50:54;;;;;;;7.13;1.65;;;;;;;15.39;100.00;98714.53;5026035;28;20045;-64
2023/07/15 02:53:21;;;;;;;14.88;2.28;;;;;;;15.22;100.00;98710.75;5047613;28;20045;-64
2023/07/15 02:55:50;;;;;;;10.18;2.28;;;;;;;15.35;100.00;98708.69;5039099;28;20054;-64
2023/07/15 02:58:17;;;;;;;13.30;2.78;;;;;;;15.41;100.00;98709.13;5049075;28;20049;-64
2023/07/15 03:00:49;;;;;;;13.10;2.35;;;;;;;15.42;100.00;98706.31;5014863;28;20460;-64
2023/07/15 03:03:17;;;;;;;13.80;3.08;;;;;;;15.34;100.00;98696.47;5042750;28;20063;-64
2023/07/15 03:05:54;;;;;;;23.38;5.07;;;;;;;15.25;100.00;98694.66;5053748;28;20053;-64
2023/07/15 03:08:22;;;;;;;14.02;2.80;;;;;;;15.42;100.00;98693.13;5008311;28;20053;-64
2023/07/15 03:10:49;;;;;;;19.42;3.88;;;;;;;15.33;100.00;98696.59;5027308;28;20455;-64
2023/07/15 03:13:16;;;;;;;20.75;4.68;;;;;;;15.27;100.00;98694.53;5033173;28;20050;-64
2023/07/15 03:15:44;;;;;;;20.83;4.43;;;;;;;15.36;100.00;98693.69;5032998;28;20056;-64
2023/07/15 03:18:12;;;;;;;22.25;5.65;;;;;;;15.39;100.00;98688.16;5015482;28;20057;-64
2023/07/15 03:20:39;;;;;;;19.63;4.35;;;;;;;15.55;100.00;98684.97;5030667;28;20052;-64
2023/07/15 03:23:06;;;;;;;15.07;3.58;;;;;;;15.58;100.00;98666.22;5033087;28;20653;-64
2023/07/15 03:25:33;;;;;;;22.67;5.50;;;;;;;15.49;100.00;98673.19;5014916;28;20246;-64
2023/07/15 03:28:00;;;;;;;22.45;5.15;;;;;;;15.56;100.00;98653.19;5032886;28;20048;-64
2023/07/15 03:30:26;;;;;;;28.45;7.35;;;;;;;15.49;100.00;98672.31;5019865;28;20077;-64
2023/07/15 03:32:56;;;;;;;19.48;6.47;;;;;;;15.53;100.00;98668.47;5030475;28;20042;-64
2023/07/15 03:35:23;;;;;;;28.85;6.10;;;;;;;15.67;100.00;98656.63;5032863;28;20057;-64
2023/07/15 03:37:50;;;;;;;26.42;6.55;;;;;;;15.53;100.00;98650.00;5032974;28;20064;-64
2023/07/15 03:40:22;;;;;;;25.00;6.53;;;;;;;15.60;100.00;98650.25;5029274;28;20050;-63
2023/07/15 03:42:49;;;;;;;22.00;5.53;;;;;;;15.67;100.00;98643.44;5029859;28;20065;-64
2023/07/15 03:45:16;;;;;;;19.65;5.60;;;;;;;15.62;100.00;98641.22;5031878;28;20088;-64
2023/07/15 03:47:43;;;;;;;25.73;7.20;;;;;;;15.67;100.00;98641.66;5041165;28;20558;-63
2023/07/15 03:50:10;;;;;;;22.50;6.15;;;;;;;15.72;100.00;98636.78;5017164;28;20056;-63
2023/07/15 03:52:37;;;;;;;26.92;6.85;;;;;;;15.56;100.00;98618.91;5049235;28;20083;-63
2023/07/15 03:55:05;;;;;;;25.58;6.93;;;;;;;15.70;100.00;98638.69;5046772;28;20049;-64
2023/07/15 03:57:33;;;;;;;21.85;6.47;;;;;;;15.61;100.00;98615.81;5048035;28;20053;-63
2023/07/15 04:00:00;;;;;;;18.45;5.25;;;;;;;15.78;100.00;98630.13;5035922;28;20077;-63
2023/07/15 04:02:28;;;;;;;28.10;7.32;;;;;;;15.75;100.00;98622.50;5032469;28;20049;-63
2023/07/15 04:04:55;;;;;;;20.75;5.65;;;;;;;15.81;100.00;98624.56;5036252;28;20057;-63
2023/07/15 04:07:23;;;;;;;22.90;6.70;;;;;;;15.79;100.00;98620.41;5035292;28;20049;-63
2023/07/15 04:09:53;;;;;;;33.95;8.77;;;;;;;15.72;100.00;98628.88;5018975;28;20056;-63
2023/07/15 04:12:21;;;;;;;31.35;7.50;;;;;;;15.69;100.00;98621.22;5033555;28;20056;-63
2023/07/15 04:14:48;;;;;;;20.90;6.05;;;;;;;15.80;100.00;98619.44;5034512;28;20076;-63
2023/07/15 04:17:15;;;;;;;23.17;5.25;;;;;;;15.84;100.00;98616.34;5052138;28;20072;-63
2023/07/15 04:19:42;;;;;;;27.10;6.63;;;;;;;15.70;100.00;98603.59;5033441;28;20045;-64
2023/07/15 04:22:09;;;;;;;20.70;5.78;;;;;;;15.77;100.00;98609.16;5026272;28;20053;-63
2023/07/15 04:24:35;;;;;;;22.35;7.13;;;;;;;15.73;100.00;98600.66;5035758;28;20059;-63
2023/07/15 04:27:02;;;;;;;23.85;6.00;;;;;;;15.67;100.00;98591.53;5035080;28;20498;-63
2023/07/15 04:29:32;;;;;;;23.15;6.75;;;;;;;15.80;100.00;98598.31;5031450;28;20050;-63
2023/07/15 04:31:59;;;;;;;21.15;5.68;;;;;;;15.67;100.00;98601.22;5041825;28;20061;-63
2023/07/15 04:34:25;;;;;;;16.10;5.80;;;;;;;15.67;100.00;98598.59;5043595;28;20188;-63
2023/07/15 04:36:52;;;;;;;24.55;7.78;;;;;;;15.56;100.00;98581.13;5031413;28;20337;-65
2023/07/15 04:39:19;;;;;;;30.45;8.38;;;;;;;15.60;100.00;98581.66;5038252;28;20049;-64
2023/07/15 04:41:47;;;;;;;23.17;6.70;;;;;;;15.79;100.00;98601.94;5036333;28;20048;-63
2023/07/15 04:44:16;;;;;;;15.93;4.88;;;;;;;15.82;100.00;98596.38;5033242;28;20056;-63
2023/07/15 04:46:42;;;;;;;18.40;7.35;;;;;;;15.85;100.00;98594.28;5033556;28;20041;-63
2023/07/15 04:49:10;;;;;;;21.58;7.13;;;;;;;15.75;100.00;98569.72;5039796;28;20049;-63
2023/07/15 04:51:38;;;;;;;21.85;6.60;;;;;;;15.79;100.00;98597.47;5041973;28;20055;-63
2023/07/15 04:54:07;;;;;;;19.38;6.65;;;;;;;15.85;100.00;98594.28;5013729;28;20523;-64
2023/07/15 04:56:35;;;;;;;18.95;6.63;;;;;;;15.74;100.00;98594.41;5042788;28;20052;-63
2023/07/15 04:59:01;;;;;;;23.67;7.22;;;;;;;15.67;100.00;98591.53;5030853;28;20049;-63
2023/07/15 05:01:28;;;;;;;22.15;7.07;;;;;;;15.78;100.00;98587.91;5020120;28;20052;-64
2023/07/15 05:03:55;;;;;;;20.75;6.47;;;;;;;15.85;100.00;98583.72;5030537;28;20068;-64
2023/07/15 05:06:22;;;;;;;20.98;6.97;;;;;;;15.76;100.00;98574.03;5031162;28;20049;-64
2023/07/15 05:08:48;;;;;;;18.45;5.63;;;;;;;15.96;100.00;98592.44;5031051;28;20139;-64
2023/07/15 05:11:16;;;;;;;20.63;6.32;;;;;;;15.89;100.00;98592.19;5025572;28;20067;-63
2023/07/15 05:13:43;;;;;;;23.02;7.88;;;;;;;15.79;100.00;98586.09;5030345;28;20476;-64
2023/07/15 05:16:09;;;;;;;20.35;7.57;;;;;;;15.79;100.00;98578.19;5030273;28;20494;-63
2023/07/15 05:18:36;;;;;;;25.50;6.72;;;;;;;15.81;100.00;98581.50;5022424;28;20128;-63
2023/07/15 05:21:03;;;;;;;21.42;6.55;;;;;;;15.71;100.00;98582.34;5024461;28;20053;-64
2023/07/15 05:23:31;;;;;;;19.13;5.93;;;;;;;15.67;100.00;98586.25;5030071;28;20526;-64
2023/07/15 05:25:59;;;;;;;20.98;6.50;;;;;;;15.74;100.00;98592.66;5029258;28;20049;-63
2023/07/15 05:28:30;;;;;;;21.02;7.20;;;;;;;15.81;100.00;98599.97;5016580;28;20052;-64
2023/07/15 05:30:58;;;;;;;18.52;8.00;;;;;;;15.69;100.00;98589.56;5026279;28;20144;-63
2023/07/15 05:33:24;;;;;;;17.90;6.68;;;;;;;15.84;100.00;98602.34;5030189;28;20065;-63
2023/07/15 05:35:52;;;;;;;29.25;7.20;;;;;;;15.72;100.00;98605.13;5030487;28;20045;-63
2023/07/15 05:38:24;;;;;;;20.67;5.28;;;;;;;15.77;100.00;98603.88;5013274;28;20061;-64
2023/07/15 05:40:51;;;;;;;15.55;5.63;;;;;;;15.80;100.00;98601.78;5020536;28;20387;-64
2023/07/15 05:43:21;;;;;;;15.70;5.25;;;;;;;15.85;100.00;98594.28;5028537;28;20509;-63
2023/07/15 05:45:48;;;;;;;17.52;5.70;;;;;;;15.97;100.00;98591.44;5029986;28;20053;-64
2023/07/15 05:48:15;;;;;;;13.25;4.45;;;;;;;16.07;100.00;98593.06;5028480;28;20061;-63
2023/07/15 05:50:41;;;;;;;19.20;6.57;;;;;;;15.91;100.00;98579.66;5015655;28;20069;-64
2023/07/15 05:53:08;;;;;;;20.85;5.82;;;;;;;15.88;100.00;98572.03;5038008;28;20406;-63
2023/07/15 05:55:35;;;;;;;14.63;4.63;;;;;;;16.07;100.00;98579.88;5030255;28;20499;-64
2023/07/15 05:58:02;;;;;;;21.15;7.05;;;;;;;15.74;100.00;98574.19;5041678;28;20542;-64
2023/07/15 06:00:29;;;;;;;24.17;5.95;;;;;;;15.90;100.00;98562.16;5029802;28;20497;-64
2023/07/15 06:02:56;;;;;;;20.40;5.57;;;;;;;16.14;100.00;98570.41;5039444;28;20052;-64
2023/07/15 06:05:23;;;;;;;15.55;5.07;;;;;;;16.21;100.00;98568.00;5034785;28;20543;-64
2023/07/15 06:07:50;;;;;;;19.38;4.65;;;;;;;16.27;100.00;98566.59;5012965;28;20041;-64
2023/07/15 06:10:17;;;;;;;16.88;6.25;;;;;;;16.11;100.00;98575.13;5026678;28;20045;-64
2023/07/15 06:12:44;;;;;;;20.25;6.57;;;;;;;15.98;100.00;98577.28;5024561;28;20483;-64
2023/07/15 06:15:11;;;;;;;15.70;4.55;;;;;;;16.16;100.00;98577.34;5029736;28;20065;-64
2023/07/15 06:17:38;;;;;;;21.08;5.93;;;;;;;16.26;100.00;98564.94;5029905;28;20633;-64
2023/07/15 06:20:06;;;;;;;16.02;4.82;;;;;;;16.38;100.00;98568.19;5026238;28;20127;-63
2023/07/15 06:22:32;;;;;;;20.55;6.03;;;;;;;16.66;100.00;98569.84;5029553;28;20045;-64
2023/07/15 06:24:59;;;;;;;26.45;7.45;;;;;;;16.57;100.00;98564.63;5028859;28;20132;-64
2023/07/15 06:27:26;;;;;;;20.55;5.50;;;;;;;17.02;100.00;98563.78;5026283;28;20053;-64
2023/07/15 06:29:52;;;;;;;22.48;5.85;;;;;;;17.19;100.00;98560.28;5023447;28;20045;-64
2023/07/15 06:32:19;;;;;;;14.38;4.38;;;;;;;17.24;100.00;98557.97;5023249;28;20095;-64
2023/07/15 06:34:46;;;;;;;13.07;4.47;;;;;;;17.55;100.00;98557.56;5042173;28;20388;-64
2023/07/15 06:37:13;;;;;;;22.42;6.00;;;;;;;17.53;100.00;98559.53;5008441;28;20054;-64
2023/07/15 06:39:40;;;;;;;26.50;5.63;;;;;;;17.33;100.00;98555.41;5018670;28;20056;-64
2023/07/15 06:42:06;;;;;;;14.35;4.43;;;;;;;17.66;100.00;98553.81;5014909;28;20057;-63
2023/07/15 06:44:33;;;;;;;19.80;5.65;;;;;;;17.42;100.00;98555.34;5016606;28;20076;-63
2023/07/15 06:47:00;;;;;;;22.33;4.93;;;;;;;17.52;100.00;98554.41;5016930;28;20057;-63
2023/07/15 06:49:27;;;;;;;26.30;5.72;;;;;;;17.82;100.00;98547.78;5019277;28;20065;-63
2023/07/15 06:51:53;;;;;;;14.32;5.07;;;;;;;18.24;100.00;98560.25;5013540;28;20064;-63
2023/07/15 06:54:21;;;;;;;15.43;4.68;;;;;;;18.44;100.00;98542.28;5024863;28;20049;-63
2023/07/15 06:56:48;;;;;;;14.75;3.70;;;;;;;18.36;100.00;98544.88;5028700;28;20045;-64
2023/07/15 06:59:15;;;;;;;17.65;4.35;;;;;;;17.82;100.00;98545.13;5026919;28;20256;-63
2023/07/15 07:01:41;;;;;;;14.80;3.85;;;;;;;18.04;100.00;98538.47;5029039;28;20053;-64
2023/07/15 07:04:08;;;;;;;12.73;3.67;;;;;;;17.76;100.00;98516.63;5030377;28;20056;-64
2023/07/15 07:06:35;;;;;;;15.35;3.85;;;;;;;17.68;100.00;98538.59;5011308;28;20049;-64
2023/07/15 07:09:02;;;;;;;21.00;3.88;;;;;;;17.63;100.00;98543.53;5024457;28;20049;-64
2023/07/15 07:11:29;;;;;;;13.35;3.75;;;;;;;17.25;100.00;98521.81;5008409;28;20050;-63
2023/07/15 07:13:56;;;;;;;15.35;3.45;;;;;;;17.42;100.00;98541.25;5025663;28;20061;-63
2023/07/15 07:16:22;;;;;;;12.90;3.15;;;;;;;17.74;100.00;98531.84;5022989;28;20061;-64
2023/07/15 07:18:49;;;;;;;15.15;4.65;;;;;;;17.54;100.00;98539.19;5026722;28;20061;-64
2023/07/15 07:21:16;;;;;;;13.80;3.47;;;;;;;17.38;100.00;98534.63;5024733;28;20053;-64
2023/07/15 07:23:43;;;;;;;14.20;4.45;;;;;;;17.28;100.00;98524.13;5019138;28;20446;-64
2023/07/15 07:26:10;;;;;;;14.23;4.20;;;;;;;17.86;100.00;98527.97;5016833;28;20403;-64
2023/07/15 07:28:44;;;;;;;14.43;3.80;;;;;;;18.79;100.00;98519.97;5016109;28;20054;-64
2023/07/15 07:31:12;;;;;;;14.35;4.13;;;;;;;19.03;100.00;98531.59;5013494;28;20044;-64
2023/07/15 07:33:41;;;;;;;16.10;3.33;;;;;;;19.49;100.00;98528.41;5014052;28;20487;-64
2023/07/15 07:36:09;;;;;;;13.23;3.70;;;;;;;20.02;100.00;98516.34;5025045;28;20049;-64
2023/07/15 07:38:35;;;;;;;14.48;3.10;;;;;;;20.05;100.00;98528.47;5025483;28;20085;-64
2023/07/15 07:41:10;;;;;;;11.68;3.08;;;;;;;20.22;100.00;98531.84;5026452;28;20116;-64
2023/07/15 07:43:39;;;;;;;12.38;3.15;;;;;;;20.42;100.00;98529.63;5011903;28;20079;-64
2023/07/15 07:46:08;;;;;;;15.10;3.22;;;;;;;20.71;100.00;98528.13;5024825;28;20061;-64
2023/07/15 07:48:35;;;;;;;10.52;2.67;;;;;;;20.91;100.00;98524.00;5030028;28;20072;-64
2023/07/15 07:51:02;;;;;;;10.15;2.78;;;;;;;20.79;100.00;98534.22;5024133;28;20045;-64
2023/07/15 07:53:29;;;;;;;9.90;2.17;;;;;;;20.84;100.00;98526.53;5031025;28;20434;-64
2023/07/15 07:55:56;;;;;;;10.57;2.30;;;;;;;21.48;100.00;98529.84;5024015;28;20049;-64
2023/07/15 07:58:23;;;;;;;9.32;2.20;;;;;;;20.89;100.00;98523.34;5022152;28;20054;-64
2023/07/15 08:00:49;;;;;;;9.95;2.53;;;;;;;20.70;100.00;98531.78;5024050;28;20483;-64
2023/07/15 08:03:18;;;;;;;14.70;2.63;;;;;;;20.40;100.00;98534.28;5030541;28;20041;-64
2023/07/15 08:05:47;;;;;;;13.13;2.90;;;;;;;20.40;100.00;98532.44;5014063;28;20049;-65
2023/07/15 08:08:15;;;;;;;12.13;3.55;;;;;;;20.74;100.00;98525.94;5026821;28;20045;-64
2023/07/15 08:10:41;;;;;;;11.05;3.30;;;;;;;20.61;100.00;98530.97;5027102;28;20046;-64
2023/07/15 08:13:08;;;;;;;12.60;3.17;;;;;;;20.48;100.00;98531.56;5030495;28;20483;-64
2023/07/15 08:15:36;;;;;;;11.20;3.05;;;;;;;20.58;100.00;98537.50;5029349;28;20052;-64
2023/07/15 08:18:04;;;;;;;15.77;3.63;;;;;;;20.67;100.00;98527.66;5030254;28;20423;-64
2023/07/15 08:20:31;;;;;;;13.30;2.95;;;;;;;21.20;100.00;98522.44;5019049;28;20097;-64
2023/07/15 08:22:59;;;;;;;11.27;3.25;;;;;;;20.73;100.00;98529.59;5037701;28;20095;-64
2023/07/15 08:25:26;;;;;;;9.88;2.78;;;;;;;20.92;100.00;98512.34;5035103;28;20052;-64
2023/07/15 08:27:54;;;;;;;9.15;2.50;;;;;;;20.84;100.00;98518.56;5025525;28;20539;-65
2023/07/15 08:30:21;;;;;;;14.88;2.83;;;;;;;21.57;100.00;98526.13;5019813;28;20064;-65
2023/07/15 08:32:48;;;;;;;11.07;2.50;;;;;;;21.13;100.00;98517.00;5023768;28;20487;-65
2023/07/15 08:35:15;;;;;;;12.55;3.00;;;;;;;21.65;100.00;98525.19;5032090;28;20455;-65
2023/07/15 08:37:42;;;;;;;10.43;2.80;;;;;;;21.52;100.00;98521.31;5029497;28;20402;-66
2023/07/15 08:40:11;;;;;;;10.60;2.35;;;;;;;21.48;100.00;98519.19;5037414;28;20053;-65
2023/07/15 08:42:39;;;;;;;14.48;3.20;;;;;;;21.29;100.00;98526.66;5030183;28;20049;-65
2023/07/15 08:45:07;;;;;;;11.27;2.00;;;;;;;21.51;100.00;98521.50;5026026;28;20124;-65
2023/07/15 08:47:39;;;;;;;10.88;2.28;;;;;;;21.45;100.00;98515.03;4999071;28;20058;-65
2023/07/15 08:50:10;;;;;;;12.60;2.55;;;;;;;21.38;100.00;98520.25;5016894;28;20398;-65
2023/07/15 08:52:41;;;;;;;10.82;2.63;;;;;;;21.01;100.00;98519.25;5017392;28;20052;-65
2023/07/15 08:55:09;;;;;;;10.70;2.75;;;;;;;21.02;100.00;98518.25;5026302;28;20056;-65
2023/07/15 08:57:37;;;;;;;11.75;2.63;;;;;;;20.94;100.00;98515.66;5011390;28;20053;-65
2023/07/15 09:00:07;;;;;;;11.68;2.40;;;;;;;21.08;100.00;98515.88;5017307;28;20431;-65
2023/07/15 09:02:38;;;;;;;8.95;2.03;;;;;;;21.33;100.00;98524.47;5027796;28;20056;-65
2023/07/15 09:05:09;;;;;;;9.95;2.10;;;;;;;20.92;100.00;98512.34;5027382;28;20273;-65
2023/07/15 09:07:51;;;;;;;9.93;2.40;;;;;;;21.50;100.00;98515.34;5009469;28;20111;-65
2023/07/15 09:10:18;;;;;;;10.82;2.33;;;;;;;21.14;100.00;98502.69;5006962;28;20050;-65
2023/07/15 09:12:54;;;;;;;10.05;2.60;;;;;;;21.38;100.00;98517.59;5026278;28;20045;-64
2023/07/15 09:15:22;;;;;;;7.82;1.90;;;;;;;21.41;100.00;98511.09;5022209;28;20053;-65
2023/07/15 09:17:54;;;;;;;9.48;1.95;;;;;;;21.75;100.00;98505.25;5026197;28;20487;-65
2023/07/15 09:20:23;;;;;;;11.02;2.13;;;;;;;22.23;100.00;98509.34;5022558;28;20168;-64
2023/07/15 09:22:56;;;;;;;9.05;2.30;;;;;;;21.39;100.00;98491.81;5022559;28;21215;-65
2023/07/15 09:25:23;;;;;;;11.90;2.20;;;;;;;20.89;100.00;98495.91;5015030;28;20052;-65
2023/07/15 09:27:52;;;;;;;8.73;1.92;;;;;;;21.01;100.00;98500.63;5023392;28;20290;-65
2023/07/15 09:30:19;;;;;;;11.00;1.92;;;;;;;21.65;100.00;98504.69;5009865;28;20063;-65
2023/07/15 09:32:47;;;;;;;14.30;2.55;;;;;;;20.97;100.00;98501.19;5019531;28;20041;-65
2023/07/15 09:35:14;;;;;;;9.85;2.00;;;;;;;21.20;100.00;98503.81;5023868;28;20049;-64
2023/07/15 09:37:42;;;;;;;8.38;1.85;;;;;;;21.04;100.00;98502.94;5019991;28;20488;-64
2023/07/15 09:40:15;;;;;;;13.27;2.47;;;;;;;20.64;100.00;98501.41;5023586;28;20502;-65
2023/07/15 09:42:57;;;;;;;12.82;2.15;;;;;;;21.07;100.00;98501.78;5013887;28;20045;-64
2023/07/15 09:45:47;;;;;;;14.98;2.20;;;;;;;21.42;100.00;98500.28;4995802;28;20111;-64
2023/07/15 09:48:20;;;;;;;10.23;2.25;;;;;;;21.55;100.00;98504.16;5021699;28;20136;-65
2023/07/15 09:50:48;;;;;;;13.50;2.75;;;;;;;21.11;100.00;98507.56;5009935;28;20495;-64
2023/07/15 09:53:16;;;;;;;13.45;2.75;;;;;;;20.80;100.00;98506.59;5029123;28;20057;-64
2023/07/15 09:55:46;;;;;;;13.25;3.05;;;;;;;20.75;100.00;98514.31;5011645;28;20422;-64
2023/07/15 09:58:24;;;;;;;9.60;2.08;;;;;;;21.05;100.00;98509.06;5013897;28;20136;-65
2023/07/15 10:01:04;;;;;;;12.60;2.75;;;;;;;21.16;100.00;98507.81;5026759;28;20593;-64
2023/07/15 10:03:45;;;;;;;15.43;3.30;;;;;;;20.85;100.00;98514.06;5030518;28;20049;-64
2023/07/15 10:06:15;;;;;;;13.77;2.60;;;;;;;20.76;100.00;98513.31;4995555;28;20049;-65
2023/07/15 10:08:44;;;;;;;13.43;2.70;;;;;;;19.98;100.00;98525.66;5029710;28;20073;-64
2023/07/15 10:11:14;;;;;;;10.82;2.55;;;;;;;20.26;100.00;98517.25;5029655;28;20064;-64
2023/07/15 10:13:44;;;;;;;16.27;3.22;;;;;;;20.18;100.00;98515.44;5014215;28;20388;-64
2023/07/15 10:16:18;;;;;;;17.77;3.40;;;;;;;20.28;100.00;98513.41;5011278;28;20054;-63
2023/07/15 10:18:52;;;;;;;12.18;2.92;;;;;;;20.05;100.00;98497.41;5006131;28;20472;-65
2023/07/15 10:21:21;;;;;;;17.70;3.42;;;;;;;20.31;100.00;98498.94;5027589;28;20053;-64
2023/07/15 10:24:08;;;;;;;12.40;2.30;;;;;;;20.72;100.00;98500.56;5028651;28;20414;-65
2023/07/15 10:26:49;;;;;;;14.68;3.10;;;;;;;20.79;100.00;98498.84;5029931;28;20084;-64
2023/07/15 10:29:24;;;;;;;8.48;2.17;;;;;;;21.23;100.00;98501.63;5021502;28;20575;-64
2023/07/15 10:32:08;;;;;;;12.85;2.88;;;;;;;21.01;100.00;98497.16;5014631;28;20056;-64
2023/07/15 10:34:48;;;;;;;14.00;2.88;;;;;;;21.12;100.00;98485.25;5045080;28;20095;-64
2023/07/15 10:37:17;;;;;;;9.40;2.40;;;;;;;21.87;100.00;98497.63;5026860;28;20080;-64
2023/07/15 10:39:46;;;;;;;9.90;2.72;;;;;;;21.48;100.00;98487.25;5034195;28;20041;-64
2023/07/15 10:42:16;;;;;;;15.10;3.50;;;;;;;21.11;100.00;98486.28;5014224;28;20045;-64
2023/07/15 10:44:53;;;;;;;10.75;2.45;;;;;;;21.58;100.00;98491.31;5014573;28;20049;-65
2023/07/15 10:47:22;;;;;;;9.75;2.70;;;;;;;21.91;100.00;98493.59;5018274;28;20076;-65
2023/07/15 10:49:51;;;;;;;12.32;2.80;;;;;;;21.79;100.00;98479.91;5007181;28;20057;-64
2023/07/15 10:52:23;;;;;;;14.48;3.05;;;;;;;21.94;100.00;98482.56;5018604;28;20071;-64
2023/07/15 10:54:54;;;;;;;10.98;2.50;;;;;;;21.88;100.00;98485.97;5037722;28;20605;-64
2023/07/15 10:57:27;;;;;;;11.13;2.53;;;;;;;21.41;100.00;98479.97;5050529;28;20664;-64
2023/07/15 11:00:09;;;;;;;8.60;2.53;;;;;;;21.73;100.00;98485.97;5032481;28;20085;-64
2023/07/15 11:02:36;;;;;;;15.00;2.92;;;;;;;21.48;100.00;98487.25;5021808;28;20135;-64
2023/07/15 11:05:08;;;;;;;11.23;2.55;;;;;;;21.32;100.00;98474.91;5013043;28;20134;-64
2023/07/15 11:07:40;;;;;;;12.07;2.47;;;;;;;21.51;100.00;98486.88;5003337;28;20068;-64
2023/07/15 11:10:17;;;;;;;12.32;2.55;;;;;;;21.39;100.00;98482.00;5022855;28;20651;-65
2023/07/15 11:12:45;;;;;;;13.25;2.55;;;;;;;21.36;100.00;98486.84;5026583;28;20383;-64
2023/07/15 11:15:19;;;;;;;7.55;2.25;;;;;;;21.63;100.00;98476.63;5048075;28;20144;-63
2023/07/15 11:17:47;;;;;;;12.10;2.50;;;;;;;21.44;100.00;98476.09;5032506;28;20045;-63
2023/07/15 11:20:17;;;;;;;10.95;2.22;;;;;;;21.47;100.00;98474.97;5013884;28;20406;-64
2023/07/15 11:22:45;;;;;;;12.38;2.45;;;;;;;21.31;100.00;98466.09;5012385;28;20084;-63
2023/07/15 11:25:14;;;;;;;14.68;2.83;;;;;;;21.29;100.00;98481.44;5015176;28;20525;-64
2023/07/15 11:27:42;;;;;;;11.77;2.15;;;;;;;21.15;100.00;98472.41;5037253;28;20514;-64